sensor_id;sensor_type;location;lat;lon;timestamp;temperature;humidity
15609;DHT22;64278;45.642;13.756;2023-05-14T00:01:48;23.40;63.50
15609;DHT22;64278;45.642;13.756;2023-05-14T00:04:16;23.40;63.50
15609;DHT22;64278;45.642;13.756;2023-05-14T00:06:44;23.30;63.40
15609;DHT22;64278;45.642;13.756;2023-05-14T00:09:10;23.30;63.40
15609;DHT22;64278;45.642;13.756;2023-05-14T00:11:36;23.30;63.40
15609;DHT22;64278;45.642;13.756;2023-05-14T00:14:02;23.30;63.40
15609;DHT22;64278;45.642;13.756;2023-05-14T00:16:27;23.30;63.40
15609;DHT22;64278;45.642;13.756;2023-05-14T00:18:53;23.30;63.40
15609;DHT22;64278;45.642;13.756;2023-05-14T00:21:19;23.20;63.30
15609;DHT22;64278;45.642;13.756;2023-05-14T00:23:44;23.20;63.30
15609;DHT22;64278;45.642;13.756;2023-05-14T00:26:10;23.20;63.30
15609;DHT22;64278;45.642;13.756;2023-05-14T00:28:36;23.20;63.30
15609;DHT22;64278;45.642;13.756;2023-05-14T00:31:01;23.20;63.30
15609;DHT22;64278;45.642;13.756;2023-05-14T00:33:27;23.20;63.30
15609;DHT22;64278;45.642;13.756;2023-05-14T00:35:53;23.20;63.30
15609;DHT22;64278;45.642;13.756;2023-05-14T00:38:18;23.20;63.40
15609;DHT22;64278;45.642;13.756;2023-05-14T00:40:45;23.20;63.40
15609;DHT22;64278;45.642;13.756;2023-05-14T00:43:19;23.20;63.40
15609;DHT22;64278;45.642;13.756;2023-05-14T00:45:45;23.10;63.40
15609;DHT22;64278;45.642;13.756;2023-05-14T00:48:12;23.20;63.30
15609;DHT22;64278;45.642;13.756;2023-05-14T00:50:38;23.10;63.20
15609;DHT22;64278;45.642;13.756;2023-05-14T00:53:04;23.10;63.20
15609;DHT22;64278;45.642;13.756;2023-05-14T00:55:35;23.10;63.20
15609;DHT22;64278;45.642;13.756;2023-05-14T00:58:08;23.10;63.20
15609;DHT22;64278;45.642;13.756;2023-05-14T01:00:35;23.10;63.20
15609;DHT22;64278;45.642;13.756;2023-05-14T01:03:02;23.10;63.20
15609;DHT22;64278;45.642;13.756;2023-05-14T01:05:35;23.10;63.20
15609;DHT22;64278;45.642;13.756;2023-05-14T01:16:15;23.10;63.20
15609;DHT22;64278;45.642;13.756;2023-05-14T01:18:42;23.10;63.20
15609;DHT22;64278;45.642;13.756;2023-05-14T01:21:37;23.10;63.20
15609;DHT22;64278;45.642;13.756;2023-05-14T01:24:05;23.10;63.20
15609;DHT22;64278;45.642;13.756;2023-05-14T01:26:31;23.10;63.20
15609;DHT22;64278;45.642;13.756;2023-05-14T01:29:03;23.10;63.20
15609;DHT22;64278;45.642;13.756;2023-05-14T01:31:34;23.10;63.20
15609;DHT22;64278;45.642;13.756;2023-05-14T01:34:01;23.00;63.20
15609;DHT22;64278;45.642;13.756;2023-05-14T01:36:28;23.00;63.20
15609;DHT22;64278;45.642;13.756;2023-05-14T01:38:56;23.00;63.20
15609;DHT22;64278;45.642;13.756;2023-05-14T01:41:22;23.00;63.20
15609;DHT22;64278;45.642;13.756;2023-05-14T01:43:48;23.00;63.30
15609;DHT22;64278;45.642;13.756;2023-05-14T01:46:17;23.00;63.20
15609;DHT22;64278;45.642;13.756;2023-05-14T01:48:43;23.00;63.20
15609;DHT22;64278;45.642;13.756;2023-05-14T01:51:09;23.00;63.20
15609;DHT22;64278;45.642;13.756;2023-05-14T01:53:34;23.00;63.20
15609;DHT22;64278;45.642;13.756;2023-05-14T01:56:00;23.00;63.20
15609;DHT22;64278;45.642;13.756;2023-05-14T01:58:26;23.00;63.20
15609;DHT22;64278;45.642;13.756;2023-05-14T02:00:51;23.00;63.30
15609;DHT22;64278;45.642;13.756;2023-05-14T02:03:17;23.00;63.30
15609;DHT22;64278;45.642;13.756;2023-05-14T02:05:43;23.00;63.30
15609;DHT22;64278;45.642;13.756;2023-05-14T02:08:08;23.00;63.30
15609;DHT22;64278;45.642;13.756;2023-05-14T02:10:34;23.00;63.30
15609;DHT22;64278;45.642;13.756;2023-05-14T02:13:00;23.00;63.30
15609;DHT22;64278;45.642;13.756;2023-05-14T02:15:25;23.00;63.30
15609;DHT22;64278;45.642;13.756;2023-05-14T02:17:51;23.00;63.30
15609;DHT22;64278;45.642;13.756;2023-05-14T02:20:17;23.00;63.40
15609;DHT22;64278;45.642;13.756;2023-05-14T02:22:42;23.00;63.30
15609;DHT22;64278;45.642;13.756;2023-05-14T02:25:10;22.90;63.20
15609;DHT22;64278;45.642;13.756;2023-05-14T02:27:36;22.90;63.20
15609;DHT22;64278;45.642;13.756;2023-05-14T02:30:02;22.90;63.20
15609;DHT22;64278;45.642;13.756;2023-05-14T02:32:28;22.90;63.30
15609;DHT22;64278;45.642;13.756;2023-05-14T02:34:54;22.90;63.30
15609;DHT22;64278;45.642;13.756;2023-05-14T02:37:20;22.90;63.30
15609;DHT22;64278;45.642;13.756;2023-05-14T02:39:45;22.90;63.30
15609;DHT22;64278;45.642;13.756;2023-05-14T02:42:11;22.90;63.20
15609;DHT22;64278;45.642;13.756;2023-05-14T02:44:37;22.90;63.30
15609;DHT22;64278;45.642;13.756;2023-05-14T02:47:03;22.80;63.40
15609;DHT22;64278;45.642;13.756;2023-05-14T02:49:28;22.90;63.30
15609;DHT22;64278;45.642;13.756;2023-05-14T02:51:54;22.80;63.30
15609;DHT22;64278;45.642;13.756;2023-05-14T02:54:20;22.80;63.30
15609;DHT22;64278;45.642;13.756;2023-05-14T02:56:45;22.80;63.30
15609;DHT22;64278;45.642;13.756;2023-05-14T02:59:11;22.80;63.50
15609;DHT22;64278;45.642;13.756;2023-05-14T03:01:37;22.80;63.50
15609;DHT22;64278;45.642;13.756;2023-05-14T03:04:02;22.80;63.60
15609;DHT22;64278;45.642;13.756;2023-05-14T03:06:28;22.80;63.60
15609;DHT22;64278;45.642;13.756;2023-05-14T03:08:54;22.80;63.70
15609;DHT22;64278;45.642;13.756;2023-05-14T03:11:19;22.80;63.80
15609;DHT22;64278;45.642;13.756;2023-05-14T03:13:45;22.80;63.80
15609;DHT22;64278;45.642;13.756;2023-05-14T03:16:11;22.70;63.80
15609;DHT22;64278;45.642;13.756;2023-05-14T03:18:36;22.80;63.90
15609;DHT22;64278;45.642;13.756;2023-05-14T03:21:02;22.70;63.90
15609;DHT22;64278;45.642;13.756;2023-05-14T03:23:28;22.70;64.00
15609;DHT22;64278;45.642;13.756;2023-05-14T03:25:56;22.70;64.00
15609;DHT22;64278;45.642;13.756;2023-05-14T03:28:22;22.70;64.10
15609;DHT22;64278;45.642;13.756;2023-05-14T03:30:47;22.70;64.20
15609;DHT22;64278;45.642;13.756;2023-05-14T03:33:13;22.70;64.10
15609;DHT22;64278;45.642;13.756;2023-05-14T03:35:39;22.70;64.20
15609;DHT22;64278;45.642;13.756;2023-05-14T03:38:04;22.70;64.20
15609;DHT22;64278;45.642;13.756;2023-05-14T03:40:30;22.70;64.30
15609;DHT22;64278;45.642;13.756;2023-05-14T03:42:56;22.70;64.30
15609;DHT22;64278;45.642;13.756;2023-05-14T03:45:21;22.70;64.30
15609;DHT22;64278;45.642;13.756;2023-05-14T03:47:47;22.70;64.40
15609;DHT22;64278;45.642;13.756;2023-05-14T03:50:13;22.70;64.40
15609;DHT22;64278;45.642;13.756;2023-05-14T03:52:38;22.70;64.40
15609;DHT22;64278;45.642;13.756;2023-05-14T03:55:05;22.70;64.50
15609;DHT22;64278;45.642;13.756;2023-05-14T03:57:31;22.70;64.50
15609;DHT22;64278;45.642;13.756;2023-05-14T03:59:56;22.70;64.60
15609;DHT22;64278;45.642;13.756;2023-05-14T04:02:22;22.60;64.50
15609;DHT22;64278;45.642;13.756;2023-05-14T04:04:47;22.60;64.60
15609;DHT22;64278;45.642;13.756;2023-05-14T04:07:13;22.60;64.60
15609;DHT22;64278;45.642;13.756;2023-05-14T04:09:39;22.60;64.60
15609;DHT22;64278;45.642;13.756;2023-05-14T19:12:08;22.70;66.70
15609;DHT22;64278;45.642;13.756;2023-05-14T19:14:33;22.70;66.60
15609;DHT22;64278;45.642;13.756;2023-05-14T19:16:59;22.80;66.50
15609;DHT22;64278;45.642;13.756;2023-05-14T19:19:25;22.80;66.40
15609;DHT22;64278;45.642;13.756;2023-05-14T19:21:51;22.80;66.30
15609;DHT22;64278;45.642;13.756;2023-05-14T19:24:16;22.80;66.20
15609;DHT22;64278;45.642;13.756;2023-05-14T19:26:42;22.90;66.90
15609;DHT22;64278;45.642;13.756;2023-05-14T19:29:08;23.00;66.10
15609;DHT22;64278;45.642;13.756;2023-05-14T19:31:33;23.00;66.00
15609;DHT22;64278;45.642;13.756;2023-05-14T19:33:59;23.00;66.00
15609;DHT22;64278;45.642;13.756;2023-05-14T19:36:25;23.00;66.00
15609;DHT22;64278;45.642;13.756;2023-05-14T19:38:50;23.00;65.80
15609;DHT22;64278;45.642;13.756;2023-05-14T19:41:16;23.10;65.80
15609;DHT22;64278;45.642;13.756;2023-05-14T19:43:42;23.10;65.70
15609;DHT22;64278;45.642;13.756;2023-05-14T19:46:07;23.10;65.60
15609;DHT22;64278;45.642;13.756;2023-05-14T19:48:33;23.20;65.50
15609;DHT22;64278;45.642;13.756;2023-05-14T19:50:59;23.20;65.50
15609;DHT22;64278;45.642;13.756;2023-05-14T19:53:24;23.20;65.30
15609;DHT22;64278;45.642;13.756;2023-05-14T19:55:57;23.20;65.30
15609;DHT22;64278;45.642;13.756;2023-05-14T19:58:23;23.20;65.20
15609;DHT22;64278;45.642;13.756;2023-05-14T20:00:49;23.20;65.10
15609;DHT22;64278;45.642;13.756;2023-05-14T20:03:17;23.20;65.00
15609;DHT22;64278;45.642;13.756;2023-05-14T20:05:43;23.30;65.00
15609;DHT22;64278;45.642;13.756;2023-05-14T20:08:13;23.30;64.90
15609;DHT22;64278;45.642;13.756;2023-05-14T20:10:38;23.40;64.80
15609;DHT22;64278;45.642;13.756;2023-05-14T20:13:05;23.40;64.80
15609;DHT22;64278;45.642;13.756;2023-05-14T20:15:33;23.40;64.70
15609;DHT22;64278;45.642;13.756;2023-05-14T20:17:59;23.40;64.60
15609;DHT22;64278;45.642;13.756;2023-05-14T20:20:25;23.40;64.60
15609;DHT22;64278;45.642;13.756;2023-05-14T20:22:51;23.40;64.50
15609;DHT22;64278;45.642;13.756;2023-05-14T20:25:17;23.40;64.40
15609;DHT22;64278;45.642;13.756;2023-05-14T20:27:42;23.50;64.50
15609;DHT22;64278;45.642;13.756;2023-05-14T20:30:08;23.50;64.30
15609;DHT22;64278;45.642;13.756;2023-05-14T20:32:34;23.50;64.20
15609;DHT22;64278;45.642;13.756;2023-05-14T20:35:00;23.50;64.20
15609;DHT22;64278;45.642;13.756;2023-05-14T20:37:29;23.50;64.10
15609;DHT22;64278;45.642;13.756;2023-05-14T20:39:55;23.50;64.10
15609;DHT22;64278;45.642;13.756;2023-05-14T20:42:22;23.50;64.10
15609;DHT22;64278;45.642;13.756;2023-05-14T20:44:48;23.60;64.00
15609;DHT22;64278;45.642;13.756;2023-05-14T20:47:15;23.60;63.90
15609;DHT22;64278;45.642;13.756;2023-05-14T20:49:45;23.60;63.80
15609;DHT22;64278;45.642;13.756;2023-05-14T20:52:11;23.60;64.50
15609;DHT22;64278;45.642;13.756;2023-05-14T20:54:37;23.60;63.70
15609;DHT22;64278;45.642;13.756;2023-05-14T20:57:03;23.60;63.70
15609;DHT22;64278;45.642;13.756;2023-05-14T20:59:29;23.60;63.60
15609;DHT22;64278;45.642;13.756;2023-05-14T21:01:54;23.70;63.70
15609;DHT22;64278;45.642;13.756;2023-05-14T21:04:20;23.70;63.60
15609;DHT22;64278;45.642;13.756;2023-05-14T21:06:46;23.70;63.60
15609;DHT22;64278;45.642;13.756;2023-05-14T21:09:11;23.70;63.40
15609;DHT22;64278;45.642;13.756;2023-05-14T21:11:37;23.70;63.40
15609;DHT22;64278;45.642;13.756;2023-05-14T21:14:03;23.80;63.40
15609;DHT22;64278;45.642;13.756;2023-05-14T21:16:29;23.80;63.30
15609;DHT22;64278;45.642;13.756;2023-05-14T21:18:55;23.70;63.30
15609;DHT22;64278;45.642;13.756;2023-05-14T21:21:21;23.80;63.30
15609;DHT22;64278;45.642;13.756;2023-05-14T21:23:47;23.80;63.30
15609;DHT22;64278;45.642;13.756;2023-05-14T21:26:13;23.80;63.20
15609;DHT22;64278;45.642;13.756;2023-05-14T21:28:39;23.80;63.10
15609;DHT22;64278;45.642;13.756;2023-05-14T21:31:04;23.80;63.10
15609;DHT22;64278;45.642;13.756;2023-05-14T21:33:30;23.90;63.10
15609;DHT22;64278;45.642;13.756;2023-05-14T21:35:56;23.90;63.00
15609;DHT22;64278;45.642;13.756;2023-05-14T21:38:21;23.90;63.00
15609;DHT22;64278;45.642;13.756;2023-05-14T21:40:47;23.90;63.00
15609;DHT22;64278;45.642;13.756;2023-05-14T21:43:13;23.90;62.90
15609;DHT22;64278;45.642;13.756;2023-05-14T21:45:39;23.90;62.90
15609;DHT22;64278;45.642;13.756;2023-05-14T21:48:04;23.90;62.90
15609;DHT22;64278;45.642;13.756;2023-05-14T21:50:31;23.90;62.80
15609;DHT22;64278;45.642;13.756;2023-05-14T21:52:56;24.00;62.80
15609;DHT22;64278;45.642;13.756;2023-05-14T21:55:22;24.00;62.80
15609;DHT22;64278;45.642;13.756;2023-05-14T21:57:48;24.00;62.80
15609;DHT22;64278;45.642;13.756;2023-05-14T22:00:14;24.00;62.80
15609;DHT22;64278;45.642;13.756;2023-05-14T22:02:43;24.00;62.90
15609;DHT22;64278;45.642;13.756;2023-05-14T22:05:08;24.00;63.00
15609;DHT22;64278;45.642;13.756;2023-05-14T22:07:34;24.00;63.20
15609;DHT22;64278;45.642;13.756;2023-05-14T22:10:00;24.10;63.60
15609;DHT22;64278;45.642;13.756;2023-05-14T22:12:25;24.00;63.30
15609;DHT22;64278;45.642;13.756;2023-05-14T22:14:51;24.00;63.40
15609;DHT22;64278;45.642;13.756;2023-05-14T22:17:17;24.00;63.40
15609;DHT22;64278;45.642;13.756;2023-05-14T22:19:43;24.00;63.50
15609;DHT22;64278;45.642;13.756;2023-05-14T22:22:08;24.00;63.50
15609;DHT22;64278;45.642;13.756;2023-05-14T22:24:34;24.00;63.60
15609;DHT22;64278;45.642;13.756;2023-05-14T22:27:00;23.90;63.50
15609;DHT22;64278;45.642;13.756;2023-05-14T22:29:25;24.00;63.60
15609;DHT22;64278;45.642;13.756;2023-05-14T22:31:51;24.00;63.70
15609;DHT22;64278;45.642;13.756;2023-05-14T22:34:17;23.90;63.60
15609;DHT22;64278;45.642;13.756;2023-05-14T22:36:43;23.90;63.70
15609;DHT22;64278;45.642;13.756;2023-05-14T22:39:09;24.00;63.80
15609;DHT22;64278;45.642;13.756;2023-05-14T22:41:35;23.90;63.70
15609;DHT22;64278;45.642;13.756;2023-05-14T22:44:00;23.90;63.80
15609;DHT22;64278;45.642;13.756;2023-05-14T22:46:26;23.80;63.80
15609;DHT22;64278;45.642;13.756;2023-05-14T22:48:52;23.90;63.80
15609;DHT22;64278;45.642;13.756;2023-05-14T22:51:17;23.90;63.90
15609;DHT22;64278;45.642;13.756;2023-05-14T22:53:43;23.80;63.80
15609;DHT22;64278;45.642;13.756;2023-05-14T22:56:09;23.80;63.80
15609;DHT22;64278;45.642;13.756;2023-05-14T22:58:35;23.80;63.80
15609;DHT22;64278;45.642;13.756;2023-05-14T23:01:01;23.80;63.80
15609;DHT22;64278;45.642;13.756;2023-05-14T23:03:26;23.80;63.80
15609;DHT22;64278;45.642;13.756;2023-05-14T23:05:52;23.80;63.90
15609;DHT22;64278;45.642;13.756;2023-05-14T23:08:18;23.80;64.00
15609;DHT22;64278;45.642;13.756;2023-05-14T23:10:43;23.80;63.90
15609;DHT22;64278;45.642;13.756;2023-05-14T23:13:09;23.80;64.00
15609;DHT22;64278;45.642;13.756;2023-05-14T23:15:35;23.80;64.00
15609;DHT22;64278;45.642;13.756;2023-05-14T23:18:01;23.80;64.00
15609;DHT22;64278;45.642;13.756;2023-05-14T23:20:26;23.80;64.10
15609;DHT22;64278;45.642;13.756;2023-05-14T23:22:52;23.70;64.80
15609;DHT22;64278;45.642;13.756;2023-05-14T23:25:18;23.80;64.10
15609;DHT22;64278;45.642;13.756;2023-05-14T23:27:44;23.80;64.20
15609;DHT22;64278;45.642;13.756;2023-05-14T23:30:10;23.70;64.10
15609;DHT22;64278;45.642;13.756;2023-05-14T23:32:36;23.80;64.20
15609;DHT22;64278;45.642;13.756;2023-05-14T23:35:02;23.70;64.20
15609;DHT22;64278;45.642;13.756;2023-05-14T23:37:28;23.70;64.30
15609;DHT22;64278;45.642;13.756;2023-05-14T23:39:53;23.70;64.40
15609;DHT22;64278;45.642;13.756;2023-05-14T23:42:19;23.70;64.50
15609;DHT22;64278;45.642;13.756;2023-05-14T23:44:45;23.70;64.60
15609;DHT22;64278;45.642;13.756;2023-05-14T23:47:11;23.70;64.60
15609;DHT22;64278;45.642;13.756;2023-05-14T23:49:36;23.70;64.70
15609;DHT22;64278;45.642;13.756;2023-05-14T23:52:04;23.60;64.60
15609;DHT22;64278;45.642;13.756;2023-05-14T23:54:29;23.60;64.70
15609;DHT22;64278;45.642;13.756;2023-05-14T23:56:55;23.60;64.70
15609;DHT22;64278;45.642;13.756;2023-05-14T23:59:21;23.60;64.80
